Time;durP1;ratioP1;P1;durP2;ratioP2;P2;SDS_P1;SDS_P2;PMS_P1;PMS_P2;Temp;Humidity;BMP_temperature;BMP_pressure;BME280_temperature;BME280_humidity;BME280_pressure;Samples;Min_cycle;Max_cycle;Signal;HPM_P1;HPM_P2
2023/10/23 00:02:01;;;;;;;0.33;0.23;;;7.50;99.90;;;;;;5019817;28;20221;-84
2023/10/23 00:04:27;;;;;;;0.37;0.27;;;7.50;99.90;;;;;;5020496;28;20191;-82
2023/10/23 00:06:52;;;;;;;0.30;0.20;;;7.50;99.90;;;;;;5018775;28;20186;-80
2023/10/23 00:09:18;;;;;;;0.67;0.50;;;7.60;99.90;;;;;;5017045;28;20202;-81
2023/10/23 00:11:43;;;;;;;0.30;0.20;;;7.50;99.90;;;;;;5023446;28;20208;-82
2023/10/23 00:14:09;;;;;;;0.30;0.30;;;7.50;99.90;;;;;;5016676;28;20186;-82
2023/10/23 00:16:34;;;;;;;0.40;0.30;;;7.50;99.90;;;;;;5023213;28;20204;-80
2023/10/23 00:19:00;;;;;;;0.40;0.30;;;7.30;99.90;;;;;;5019219;28;20236;-80
2023/10/23 00:21:25;;;;;;;0.40;0.30;;;7.30;99.90;;;;;;5030498;28;20181;-83
2023/10/23 00:23:51;;;;;;;0.40;0.30;;;;;;;;;;5017436;28;20200;-82
2023/10/23 00:26:17;;;;;;;0.40;0.30;;;7.30;99.90;;;;;;5043194;28;20214;-82
2023/10/23 00:28:43;;;;;;;0.40;0.20;;;7.30;99.90;;;;;;5027704;28;20448;-81
2023/10/23 00:31:08;;;;;;;0.40;0.20;;;7.40;99.90;;;;;;5017445;28;20479;-83
2023/10/23 00:33:34;;;;;;;0.40;0.30;;;7.40;99.90;;;;;;5020634;28;20188;-83
2023/10/23 00:35:59;;;;;;;0.40;0.30;;;9.40;99.90;;;;;;5018477;28;20247;-82
2023/10/23 00:38:27;;;;;;;0.40;0.30;;;7.20;99.90;;;;;;5016675;28;20213;-81
2023/10/23 00:40:53;;;;;;;0.40;0.20;;;7.40;99.90;;;;;;5013300;28;20240;-80
2023/10/23 00:43:23;;;;;;;1.00;1.00;;;7.40;99.90;;;;;;5019138;28;20185;-82
2023/10/23 00:45:54;;;;;;;0.40;0.30;;;7.40;99.90;;;;;;5021907;28;20639;-81
2023/10/23 00:48:21;;;;;;;0.30;0.30;;;7.40;99.90;;;;;;5011979;28;20390;-81
2023/10/23 00:50:48;;;;;;;0.40;0.30;;;7.40;99.90;;;;;;5011972;28;20215;-85
2023/10/23 00:53:14;;;;;;;0.30;0.20;;;7.30;99.90;;;;;;5014872;28;20551;-81
2023/10/23 00:55:40;;;;;;;0.40;0.30;;;7.30;99.90;;;;;;5020073;28;20248;-83
2023/10/23 00:58:06;;;;;;;0.40;0.20;;;7.30;99.90;;;;;;5015749;28;20260;-80
2023/10/23 01:00:35;;;;;;;0.50;0.50;;;7.30;99.90;;;;;;5017353;28;20225;-82
2023/10/23 01:03:01;;;;;;;0.30;0.20;;;7.20;99.90;;;;;;5025083;28;20192;-82
2023/10/23 01:05:26;;;;;;;0.40;0.20;;;7.20;99.90;;;;;;5031989;28;20356;-82
2023/10/23 01:07:52;;;;;;;0.40;0.30;;;7.20;99.90;;;;;;5027385;28;20748;-81
2023/10/23 01:10:17;;;;;;;0.40;0.20;;;9.90;99.90;;;;;;5038580;28;20209;-81
2023/10/23 01:12:44;;;;;;;0.93;0.83;;;7.10;99.90;;;;;;5024429;28;20189;-82
2023/10/23 01:15:10;;;;;;;0.40;0.30;;;7.10;99.90;;;;;;5020829;28;20300;-82
2023/10/23 01:17:35;;;;;;;0.90;0.60;;;7.10;99.90;;;;;;5035916;28;20304;-81
2023/10/23 01:20:01;;;;;;;1.53;1.27;;;7.10;99.90;;;;;;5032833;28;20224;-82
2023/10/23 01:22:26;;;;;;;0.40;0.30;;;7.20;99.90;;;;;;5019495;28;20209;-85
2023/10/23 01:24:52;;;;;;;0.30;0.30;;;7.20;99.90;;;;;;5020435;28;20198;-83
2023/10/23 01:27:18;;;;;;;1.07;0.40;;;7.20;99.90;;;;;;5029435;28;20610;-83
2023/10/23 01:29:43;;;;;;;0.40;0.20;;;7.20;99.90;;;;;;5015722;28;20257;-83
2023/10/23 01:32:10;;;;;;;0.57;0.50;;;7.10;99.90;;;;;;5018903;28;20183;-80
2023/10/23 01:34:35;;;;;;;0.40;0.30;;;7.00;99.90;;;;;;5033713;28;20283;-81
2023/10/23 01:37:01;;;;;;;0.40;0.40;;;7.00;99.90;;;;;;5037243;28;20242;-81
2023/10/23 01:39:27;;;;;;;0.40;0.30;;;7.00;99.90;;;;;;5020684;28;20308;-83
2023/10/23 01:41:52;;;;;;;0.30;0.20;;;6.90;99.90;;;;;;5036089;28;20340;-83
2023/10/23 01:44:18;;;;;;;0.40;0.30;;;7.00;99.90;;;;;;5027981;28;20264;-82
2023/10/23 01:46:43;;;;;;;0.30;0.20;;;6.90;99.90;;;;;;5024766;28;20178;-80
2023/10/23 01:49:09;;;;;;;0.40;0.30;;;6.90;99.90;;;;;;5025468;28;20185;-82
2023/10/23 01:51:34;;;;;;;0.37;0.30;;;6.90;99.90;;;;;;5014082;28;20578;-84
2023/10/23 01:54:02;;;;;;;0.40;0.20;;;6.80;99.90;;;;;;5025847;28;20491;-83
2023/10/23 01:56:27;;;;;;;0.35;0.22;;;6.80;99.90;;;;;;5037760;28;20201;-81
2023/10/23 01:58:53;;;;;;;0.40;0.30;;;6.80;99.90;;;;;;5022253;28;20197;-86
2023/10/23 02:01:23;;;;;;;0.57;0.57;;;6.70;99.90;;;;;;5019132;28;20193;-83
2023/10/23 02:03:50;;;;;;;0.30;0.20;;;6.80;99.90;;;;;;5022944;28;20372;-83
2023/10/23 02:06:16;;;;;;;0.30;0.20;;;6.70;99.90;;;;;;5035054;28;20204;-82
2023/10/23 02:08:41;;;;;;;0.70;0.70;;;6.60;99.90;;;;;;5037643;28;20182;-83
2023/10/23 02:11:08;;;;;;;0.40;0.40;;;6.60;99.90;;;;;;5024336;28;20823;-85
2023/10/23 02:13:34;;;;;;;0.40;0.28;;;6.60;99.90;;;;;;5026145;28;20201;-83
2023/10/23 02:15:59;;;;;;;3.60;1.40;;;6.50;99.90;;;;;;5036035;28;20195;-85
2023/10/23 02:18:27;;;;;;;0.40;0.30;;;6.50;99.90;;;;;;5011743;28;20471;-80
2023/10/23 02:20:52;;;;;;;0.35;0.30;;;6.50;99.90;;;;;;5047550;28;20220;-84
2023/10/23 02:23:18;;;;;;;0.30;0.20;;;6.50;99.90;;;;;;5018402;28;20835;-81
2023/10/23 02:25:43;;;;;;;0.40;0.40;;;6.50;99.90;;;;;;5024872;28;20181;-81
2023/10/23 02:28:09;;;;;;;0.60;0.60;;;8.20;99.90;;;;;;5038670;28;20680;-84
2023/10/23 02:30:38;;;;;;;0.43;0.43;;;6.50;99.90;;;;;;5023713;28;20240;-82
2023/10/23 02:33:03;;;;;;;0.40;0.20;;;6.50;99.90;;;;;;5034730;28;20698;-82
2023/10/23 02:35:29;;;;;;;0.30;0.30;;;6.60;99.90;;;;;;5025694;28;20231;-83
2023/10/23 02:37:54;;;;;;;0.40;0.30;;;6.40;99.90;;;;;;5023214;28;20238;-82
2023/10/23 02:40:20;;;;;;;0.40;0.30;;;6.30;99.90;;;;;;5035474;28;20336;-83
2023/10/23 02:42:46;;;;;;;0.30;0.20;;;6.30;99.90;;;;;;5022633;28;20185;-81
2023/10/23 02:45:13;;;;;;;0.33;0.20;;;6.20;99.90;;;;;;5024513;28;20235;-83
2023/10/23 02:47:39;;;;;;;0.73;0.40;;;6.20;99.90;;;;;;5016614;28;20186;-80
2023/10/23 02:50:05;;;;;;;0.40;0.30;;;6.20;99.90;;;;;;5017916;28;20202;-81
2023/10/23 02:52:30;;;;;;;0.30;0.20;;;6.20;99.90;;;;;;5020832;28;20397;-84
2023/10/23 02:54:56;;;;;;;0.40;0.30;;;6.10;99.90;;;;;;5021403;28;20196;-82
2023/10/23 02:57:22;;;;;;;0.40;0.30;;;;;;;;;;5021990;28;20312;-81
2023/10/23 02:59:47;;;;;;;0.40;0.30;;;5.90;99.90;;;;;;5035956;28;20206;-83
2023/10/23 03:02:19;;;;;;;0.30;0.20;;;5.80;99.90;;;;;;5014820;28;20551;-81
2023/10/23 03:04:44;;;;;;;0.40;0.32;;;5.80;99.90;;;;;;5035477;28;20295;-81
2023/10/23 03:07:13;;;;;;;0.40;0.23;;;5.80;99.90;;;;;;5016684;28;20345;-82
2023/10/23 03:09:38;;;;;;;0.40;0.30;;;5.90;99.90;;;;;;5022170;28;20209;-84
2023/10/23 03:12:04;;;;;;;0.40;0.40;;;5.90;99.90;;;;;;5022118;28;20785;-82
2023/10/23 03:14:30;;;;;;;0.40;0.20;;;;;;;;;;5038085;28;20200;-82
2023/10/23 03:16:56;;;;;;;0.40;0.40;;;6.00;99.90;;;;;;5024655;28;20476;-80
2023/10/23 03:19:25;;;;;;;0.40;0.30;;;6.00;99.90;;;;;;5019496;28;20484;-80
2023/10/23 03:21:50;;;;;;;1.20;1.10;;;6.00;99.90;;;;;;5031701;28;20174;-83
2023/10/23 03:24:16;;;;;;;0.30;0.20;;;5.90;99.90;;;;;;5025044;28;20281;-81
2023/10/23 03:26:41;;;;;;;0.37;0.20;;;5.90;99.90;;;;;;5032234;28;20391;-79
2023/10/23 03:29:07;;;;;;;0.60;0.60;;;5.90;99.90;;;;;;5024142;28;20228;-84
2023/10/23 03:31:32;;;;;;;0.40;0.30;;;5.90;99.90;;;;;;5019582;28;20324;-83
2023/10/23 03:33:58;;;;;;;0.37;0.20;;;5.90;99.90;;;;;;5020871;28;20207;-82
2023/10/23 03:36:24;;;;;;;0.40;0.20;;;5.80;99.90;;;;;;5014575;28;20848;-84
2023/10/23 03:38:51;;;;;;;0.30;0.20;;;5.90;99.90;;;;;;5011544;28;20271;-82
2023/10/23 03:41:17;;;;;;;0.38;0.20;;;5.90;99.90;;;;;;5017564;28;20233;-81
2023/10/23 03:43:43;;;;;;;0.30;0.20;;;5.90;99.90;;;;;;5034302;28;20211;-82
2023/10/23 03:46:08;;;;;;;0.33;0.27;;;5.90;99.90;;;;;;5021720;28;22231;-84
2023/10/23 03:48:35;;;;;;;0.40;0.40;;;5.80;99.90;;;;;;5031343;28;20212;-83
2023/10/23 03:51:01;;;;;;;0.50;0.50;;;5.80;99.90;;;;;;5027969;28;20217;-83
2023/10/23 03:53:27;;;;;;;0.30;0.30;;;5.90;99.90;;;;;;5016070;28;20202;-81
2023/10/23 03:55:52;;;;;;;0.40;0.30;;;5.90;99.90;;;;;;5022873;28;20574;-81
2023/10/23 03:58:18;;;;;;;0.40;0.30;;;5.90;99.90;;;;;;5016675;28;20228;-81
2023/10/23 04:00:43;;;;;;;0.30;0.30;;;5.90;99.90;;;;;;5023408;28;20210;-82
2023/10/23 04:03:11;;;;;;;0.40;0.40;;;5.90;99.90;;;;;;5017471;28;20307;-81
2023/10/23 04:05:40;;;;;;;1.50;0.65;;;5.80;99.90;;;;;;5018970;28;20221;-82
2023/10/23 04:08:06;;;;;;;0.38;0.35;;;5.80;99.90;;;;;;5032417;28;20321;-82
2023/10/23 04:10:31;;;;;;;0.40;0.20;;;5.70;99.90;;;;;;5021906;28;20206;-81
2023/10/23 04:12:57;;;;;;;0.97;0.97;;;5.70;99.90;;;;;;5041254;28;20212;-81
2023/10/23 04:15:24;;;;;;;0.40;0.30;;;5.60;99.90;;;;;;5014465;28;20829;-84
2023/10/23 04:17:49;;;;;;;0.40;0.30;;;5.60;99.90;;;;;;5016829;28;20232;-82
2023/10/23 04:20:15;;;;;;;1.17;1.07;;;5.40;99.90;;;;;;5016372;28;20241;-82
2023/10/23 04:22:41;;;;;;;0.33;0.27;;;5.50;99.90;;;;;;5036439;28;20300;-81
2023/10/23 04:25:07;;;;;;;0.40;0.30;;;5.50;99.90;;;;;;5015905;28;20189;-83
2023/10/23 04:27:32;;;;;;;0.40;0.30;;;5.50;99.90;;;;;;5020253;28;20490;-82
2023/10/23 04:29:59;;;;;;;0.30;0.30;;;5.50;99.90;;;;;;5022893;28;20463;-82
2023/10/23 04:32:25;;;;;;;0.68;0.68;;;5.50;99.90;;;;;;5020430;28;20847;-82
2023/10/23 04:34:51;;;;;;;0.55;0.55;;;5.60;99.90;;;;;;5035363;28;20220;-82
2023/10/23 04:37:16;;;;;;;0.40;0.30;;;5.20;99.90;;;;;;5020469;28;20296;-82
2023/10/23 04:39:42;;;;;;;1.13;0.80;;;5.60;99.90;;;;;;5015282;28;20874;-81
2023/10/23 04:42:07;;;;;;;0.40;0.20;;;5.50;99.90;;;;;;5031252;28;20268;-80
2023/10/23 04:44:34;;;;;;;4.87;1.53;;;5.40;99.90;;;;;;5025995;28;21573;-84
2023/10/23 04:47:00;;;;;;;0.40;0.30;;;5.30;99.90;;;;;;5011698;28;20206;-80
2023/10/23 04:49:25;;;;;;;8.68;2.30;;;5.20;99.90;;;;;;5016265;28;20224;-81
2023/10/23 04:51:52;;;;;;;0.40;0.27;;;5.10;99.90;;;;;;5023201;28;20191;-83
2023/10/23 04:54:18;;;;;;;0.30;0.20;;;5.00;99.90;;;;;;5011292;28;20189;-84
2023/10/23 04:56:43;;;;;;;0.40;0.27;;;5.00;99.90;;;;;;5010430;28;20216;-81
2023/10/23 04:59:09;;;;;;;0.30;0.20;;;5.10;99.90;;;;;;5027166;28;20185;-83
2023/10/23 05:01:35;;;;;;;0.30;0.20;;;5.10;99.90;;;;;;5008879;28;20764;-82
2023/10/23 05:04:00;;;;;;;0.37;0.20;;;5.10;99.90;;;;;;5037957;28;20186;-80
2023/10/23 05:06:26;;;;;;;0.40;0.30;;;5.10;99.90;;;;;;5015520;28;20216;-84
2023/10/23 05:08:53;;;;;;;0.40;0.30;;;5.20;99.90;;;;;;5013060;28;20217;-84
2023/10/23 05:11:19;;;;;;;0.40;0.30;;;5.20;99.90;;;;;;5013664;28;20213;-85
2023/10/23 05:13:47;;;;;;;0.40;0.30;;;5.30;99.90;;;;;;5009446;28;20186;-82
2023/10/23 05:16:13;;;;;;;0.40;0.30;;;5.30;99.90;;;;;;5016442;28;20478;-83
2023/10/23 05:18:39;;;;;;;0.50;0.50;;;5.30;99.90;;;;;;5017305;28;20747;-83
2023/10/23 05:21:09;;;;;;;1.77;0.73;;;5.40;99.90;;;;;;5018134;28;20217;-82
2023/10/23 05:23:36;;;;;;;0.30;0.30;;;5.40;99.90;;;;;;5036799;28;20186;-83
2023/10/23 05:26:01;;;;;;;0.30;0.20;;;5.40;99.90;;;;;;5022078;28;20282;-85
2023/10/23 05:28:27;;;;;;;0.40;0.20;;;5.30;99.90;;;;;;5034004;28;20795;-82
2023/10/23 05:30:52;;;;;;;0.30;0.20;;;5.20;99.90;;;;;;5021773;28;20225;-82
2023/10/23 05:33:19;;;;;;;0.57;0.53;;;5.20;99.90;;;;;;5031894;28;20268;-81
2023/10/23 05:35:45;;;;;;;0.30;0.22;;;5.30;99.90;;;;;;5038194;28;20194;-83
2023/10/23 05:38:11;;;;;;;0.30;0.27;;;5.20;99.90;;;;;;5030638;28;20215;-84
2023/10/23 05:40:36;;;;;;;0.30;0.20;;;5.20;99.90;;;;;;5029452;28;20202;-84
2023/10/23 05:43:02;;;;;;;0.40;0.30;;;5.20;99.90;;;;;;5016672;28;20186;-83
2023/10/23 05:45:27;;;;;;;0.40;0.40;;;5.10;99.90;;;;;;5020672;28;20193;-82
2023/10/23 05:47:53;;;;;;;0.40;0.40;;;5.00;99.90;;;;;;5021212;28;20216;-82
2023/10/23 05:50:18;;;;;;;0.40;0.30;;;5.00;99.90;;;;;;5016999;28;23446;-83
2023/10/23 05:52:44;;;;;;;0.40;0.30;;;4.90;99.90;;;;;;5018380;28;20206;-85
2023/10/23 05:55:10;;;;;;;0.40;0.30;;;4.80;99.90;;;;;;5027693;28;20185;-83
2023/10/23 05:57:35;;;;;;;0.40;0.30;;;4.80;99.90;;;;;;5018379;28;20220;-83
2023/10/23 06:00:03;;;;;;;0.30;0.20;;;4.70;99.90;;;;;;5007663;28;20214;-84
2023/10/23 06:02:30;;;;;;;0.40;0.30;;;4.70;99.90;;;;;;5000681;28;20217;-84
2023/10/23 06:04:56;;;;;;;0.30;0.30;;;4.80;99.90;;;;;;5005990;28;20186;-84
2023/10/23 06:07:21;;;;;;;0.30;0.20;;;4.70;99.90;;;;;;5015675;28;20194;-83
2023/10/23 06:09:47;;;;;;;0.40;0.40;;;4.70;99.90;;;;;;5027943;28;20377;-83
2023/10/23 06:12:14;;;;;;;0.40;0.20;;;4.60;99.90;;;;;;5014353;28;20194;-85
2023/10/23 06:14:40;;;;;;;0.40;0.30;;;4.70;99.90;;;;;;5022366;28;20185;-83
2023/10/23 06:17:06;;;;;;;0.60;0.60;;;4.60;99.90;;;;;;5017773;28;20224;-81
2023/10/23 06:19:32;;;;;;;0.37;0.30;;;4.60;99.90;;;;;;5013079;28;20496;-82
2023/10/23 06:21:57;;;;;;;0.40;0.30;;;4.70;99.90;;;;;;4980621;28;20252;-82
2023/10/23 06:24:23;;;;;;;0.40;0.30;;;4.90;99.90;;;;;;5018065;28;20244;-85
2023/10/23 06:26:48;;;;;;;0.30;0.20;;;4.90;99.90;;;;;;5013494;28;20193;-82
2023/10/23 06:29:14;;;;;;;0.30;0.30;;;5.20;99.90;;;;;;5057756;28;20181;-80
2023/10/23 06:31:40;;;;;;;1.53;1.50;;;5.20;99.90;;;;;;5049368;28;20244;-82
2023/10/23 06:34:06;;;;;;;0.40;0.30;;;;;;;;;;5028876;28;20213;-79
2023/10/23 06:36:31;;;;;;;0.30;0.30;;;5.50;99.90;;;;;;5017864;28;20443;-84
2023/10/23 06:38:57;;;;;;;0.30;0.20;;;5.50;99.90;;;;;;5021942;28;20440;-86
2023/10/23 06:41:22;;;;;;;0.57;0.57;;;5.80;99.90;;;;;;5011296;28;21795;-81
2023/10/23 06:43:48;;;;;;;0.40;0.30;;;7.00;99.90;;;;;;5016686;28;20178;-80
2023/10/23 06:46:14;;;;;;;0.30;0.20;;;8.50;99.90;;;;;;5014272;28;20856;-83
2023/10/23 06:48:44;;;;;;;0.50;0.50;;;;;;;;;;5032952;28;20185;-81
2023/10/23 06:51:10;;;;;;;0.35;0.30;;;9.00;99.90;;;;;;5022286;28;20472;-86
2023/10/23 06:53:36;;;;;;;0.40;0.40;;;9.70;99.90;;;;;;5020694;28;20193;-82
2023/10/23 06:56:02;;;;;;;0.50;0.40;;;11.10;99.90;;;;;;5038275;28;20193;-80
2023/10/23 06:58:28;;;;;;;0.77;0.77;;;12.70;99.90;;;;;;5019140;28;20209;-83
2023/10/23 07:00:53;;;;;;;1.33;1.23;;;13.10;99.90;;;;;;5025423;28;20837;-80
2023/10/23 07:03:19;;;;;;;0.40;0.30;;;;;;;;;;5038751;28;20667;-82
2023/10/23 07:05:45;;;;;;;0.50;0.50;;;12.70;99.90;;;;;;5019327;28;20185;-82
2023/10/23 07:08:12;;;;;;;0.40;0.20;;;11.40;99.90;;;;;;5020218;28;20193;-81
2023/10/23 07:10:38;;;;;;;0.47;0.35;;;10.90;99.90;;;;;;5021847;28;21095;-82
2023/10/23 07:13:04;;;;;;;0.40;0.30;;;11.10;99.90;;;;;;5022736;28;20207;-83
2023/10/23 07:15:34;;;;;;;0.40;0.20;;;10.10;99.90;;;;;;5014962;28;20679;-79
2023/10/23 07:17:59;;;;;;;1.50;0.65;;;10.40;99.90;;;;;;5038900;28;20467;-84
2023/10/23 07:20:25;;;;;;;0.40;0.20;;;10.50;99.90;;;;;;5019160;28;20203;-80
2023/10/23 07:22:50;;;;;;;0.40;0.40;;;10.30;99.90;;;;;;5039412;28;20694;-80
2023/10/23 07:25:16;;;;;;;1.53;0.90;;;10.10;99.90;;;;;;5035167;28;20322;-85
2023/10/23 07:27:41;;;;;;;0.40;0.30;;;9.70;99.90;;;;;;5024952;28;20259;-84
2023/10/23 07:30:07;;;;;;;0.40;0.30;;;8.90;99.90;;;;;;5021878;28;20255;-79
2023/10/23 07:32:35;;;;;;;0.70;0.50;;;8.70;99.90;;;;;;5017865;28;20217;-83
2023/10/23 07:35:03;;;;;;;0.40;0.40;;;8.60;99.90;;;;;;5038367;28;20526;-80
2023/10/23 07:37:29;;;;;;;0.40;0.30;;;8.60;99.90;;;;;;5011750;28;20635;-80
2023/10/23 07:39:56;;;;;;;0.40;0.30;;;8.80;99.90;;;;;;5012964;28;20279;-83
2023/10/23 07:42:21;;;;;;;0.40;0.30;;;8.80;99.90;;;;;;5020843;28;20471;-82
2023/10/23 07:44:47;;;;;;;0.73;0.73;;;;;;;;;;5017496;28;20416;-82
2023/10/23 07:47:13;;;;;;;0.40;0.37;;;8.80;99.90;;;;;;5019592;28;20265;-81
2023/10/23 07:49:38;;;;;;;0.50;0.50;;;9.10;99.90;;;;;;5018805;28;21270;-80
2023/10/23 07:52:04;;;;;;;0.40;0.30;;;9.20;99.90;;;;;;5018479;28;20224;-81
2023/10/23 07:54:31;;;;;;;0.40;0.30;;;;;;;;;;5036815;28;20198;-80
2023/10/23 07:56:57;;;;;;;0.40;0.20;;;9.70;99.90;;;;;;5027401;28;20573;-78
2023/10/23 07:59:23;;;;;;;2.00;1.65;;;9.90;99.90;;;;;;5029013;28;20233;-82
2023/10/23 08:01:49;;;;;;;1.10;1.10;;;10.10;99.90;;;;;;5020995;28;20216;-79
2023/10/23 08:04:16;;;;;;;0.40;0.40;;;;;;;;;;5020683;28;20225;-80
2023/10/23 08:06:42;;;;;;;0.40;0.30;;;10.20;99.90;;;;;;5020371;28;20518;-79
2023/10/23 08:09:10;;;;;;;0.40;0.30;;;10.20;99.90;;;;;;5048937;28;20699;-83
2023/10/23 08:11:35;;;;;;;0.40;0.20;;;10.20;99.90;;;;;;5037785;28;20196;-81
2023/10/23 08:14:01;;;;;;;0.40;0.20;;;10.40;99.90;;;;;;5025643;28;20189;-85
2023/10/23 08:16:27;;;;;;;0.47;0.47;;;10.50;99.90;;;;;;5025409;28;20186;-84
2023/10/23 08:18:53;;;;;;;0.40;0.20;;;10.60;99.90;;;;;;5020447;28;20200;-82
2023/10/23 08:21:21;;;;;;;0.43;0.40;;;10.50;99.90;;;;;;5020898;28;21056;-79
2023/10/23 08:23:52;;;;;;;0.40;0.40;;;10.50;99.90;;;;;;5040407;28;20181;-82
2023/10/23 08:26:18;;;;;;;0.40;0.22;;;;;;;;;;5038771;28;20185;-79
2023/10/23 08:28:44;;;;;;;0.40;0.20;;;10.60;99.90;;;;;;5017988;28;20182;-81
2023/10/23 08:31:10;;;;;;;0.40;0.30;;;;;;;;;;5022135;28;21060;-81
2023/10/23 08:33:35;;;;;;;0.40;0.30;;;10.90;99.90;;;;;;5013558;28;20200;-83
2023/10/23 08:36:01;;;;;;;2.67;1.80;;;11.00;99.90;;;;;;5002573;28;20512;-83
2023/10/23 08:38:28;;;;;;;0.73;0.43;;;11.00;99.90;;;;;;5009209;28;20209;-82
2023/10/23 08:40:55;;;;;;;0.40;0.22;;;11.10;99.90;;;;;;5010412;28;20209;-81
2023/10/23 08:43:23;;;;;;;0.93;0.93;;;11.30;99.90;;;;;;5012750;28;20186;-83
2023/10/23 08:45:50;;;;;;;0.40;0.30;;;11.30;99.90;;;;;;5025046;28;20185;-79
2023/10/23 08:48:17;;;;;;;0.40;0.30;;;;;;;;;;5027122;28;20189;-82
2023/10/23 08:50:43;;;;;;;0.40;0.30;;;11.50;99.90;;;;;;5013371;28;20233;-82
2023/10/23 08:53:11;;;;;;;0.85;0.60;;;11.20;99.90;;;;;;5012807;28;20193;-87
2023/10/23 08:55:36;;;;;;;0.52;0.50;;;11.10;99.90;;;;;;5017620;28;21374;-84
2023/10/23 08:58:04;;;;;;;0.40;0.40;;;11.20;99.90;;;;;;5010837;28;20213;-82
2023/10/23 09:00:30;;;;;;;0.40;0.20;;;11.20;99.90;;;;;;5013657;28;20213;-84
2023/10/23 09:02:58;;;;;;;0.50;0.43;;;11.30;99.90;;;;;;5015106;28;20271;-83
2023/10/23 09:05:24;;;;;;;1.15;1.05;;;11.50;99.90;;;;;;5023003;28;20217;-78
2023/10/23 09:07:49;;;;;;;0.40;0.30;;;11.70;99.90;;;;;;5027665;28;20221;-81
2023/10/23 09:10:15;;;;;;;0.40;0.30;;;11.80;99.90;;;;;;5017978;28;20568;-83
2023/10/23 09:12:41;;;;;;;0.50;0.40;;;12.10;99.90;;;;;;5013530;28;20281;-86
2023/10/23 09:15:17;;;;;;;0.50;0.50;;;12.20;99.90;;;;;;5017787;28;20182;-79
2023/10/23 09:17:43;;;;;;;0.40;0.20;;;12.10;99.90;;;;;;5015636;28;20519;-81
2023/10/23 09:20:18;;;;;;;0.40;0.40;;;12.00;99.90;;;;;;5022560;28;20294;-83
2023/10/23 09:22:47;;;;;;;1.15;0.40;;;12.10;99.90;;;;;;4998310;28;21047;-82
2023/10/23 09:25:17;;;;;;;0.40;0.40;;;12.00;99.90;;;;;;5033240;28;20201;-84
2023/10/23 09:27:43;;;;;;;0.50;0.45;;;11.90;99.90;;;;;;5024316;28;20301;-81
2023/10/23 09:30:10;;;;;;;0.90;0.85;;;11.90;99.90;;;;;;5026525;28;20220;-84
2023/10/23 09:32:36;;;;;;;1.02;1.02;;;11.90;99.90;;;;;;5016682;28;20194;-81
2023/10/23 09:35:06;;;;;;;0.40;0.30;;;11.60;99.90;;;;;;5016064;28;20262;-83
2023/10/23 09:37:32;;;;;;;0.40;0.32;;;11.50;99.90;;;;;;5031230;28;20228;-83
2023/10/23 09:40:05;;;;;;;0.50;0.50;;;11.40;99.90;;;;;;5012280;28;20564;-84
2023/10/23 09:42:32;;;;;;;0.40;0.30;;;11.50;99.90;;;;;;5021705;28;20192;-85
2023/10/23 09:45:00;;;;;;;0.40;0.30;;;11.60;99.90;;;;;;5023529;28;20220;-84
2023/10/23 09:47:28;;;;;;;0.50;0.30;;;11.70;99.90;;;;;;5015754;28;20178;-83
2023/10/23 09:49:54;;;;;;;0.40;0.40;;;11.60;99.90;;;;;;5018247;28;20258;-85
2023/10/23 09:52:25;;;;;;;0.40;0.20;;;11.80;99.90;;;;;;5004036;28;20253;-81
2023/10/23 09:54:59;;;;;;;0.40;0.30;;;12.00;99.90;;;;;;5019424;28;20456;-83
2023/10/23 09:57:32;;;;;;;0.65;0.55;;;12.00;99.90;;;;;;5008890;28;20206;-83
2023/10/23 10:00:00;;;;;;;0.40;0.20;;;12.10;99.90;;;;;;5008219;28;20217;-81
2023/10/23 10:02:32;;;;;;;0.40;0.20;;;12.20;99.90;;;;;;5007947;28;20301;-80
2023/10/23 10:05:05;;;;;;;0.40;0.30;;;12.30;99.90;;;;;;5037596;28;20182;-78
2023/10/23 10:08:01;;;;;;;0.50;0.40;;;12.30;99.90;;;;;;5027065;28;20201;-78
2023/10/23 10:10:29;;;;;;;2.30;2.15;;;12.50;99.90;;;;;;5017131;28;20214;-84
2023/10/23 10:12:55;;;;;;;0.50;0.40;;;12.50;99.90;;;;;;5016670;28;20189;-82
2023/10/23 10:15:23;;;;;;;0.40;0.40;;;12.60;99.90;;;;;;5019127;28;20186;-79
2023/10/23 10:17:49;;;;;;;0.40;0.20;;;12.90;99.90;;;;;;5032545;28;20241;-79
2023/10/23 10:20:20;;;;;;;0.40;0.20;;;12.90;99.90;;;;;;5031105;28;20948;-83
2023/10/23 10:23:03;;;;;;;0.50;0.37;;;12.90;99.90;;;;;;5017701;28;20437;-82
2023/10/23 10:25:30;;;;;;;1.15;0.68;;;12.80;99.90;;;;;;5018097;28;20444;-80
2023/10/23 10:27:57;;;;;;;0.73;0.30;;;12.90;99.90;;;;;;5036168;28;20316;-83
2023/10/23 10:30:43;;;;;;;0.60;0.50;;;12.90;99.90;;;;;;5019686;28;20471;-84
2023/10/23 10:33:10;;;;;;;0.40;0.30;;;12.80;99.90;;;;;;5039445;28;20436;-82
2023/10/23 10:35:36;;;;;;;1.17;0.80;;;14.80;99.90;;;;;;5047471;28;22258;-83
2023/10/23 10:38:03;;;;;;;0.40;0.30;;;12.50;99.90;;;;;;5051975;28;20559;-85
2023/10/23 10:41:04;;;;;;;0.60;0.60;;;12.40;99.90;;;;;;5016744;28;20244;-82
2023/10/23 10:43:37;;;;;;;0.40;0.30;;;12.30;99.90;;;;;;5006524;28;20192;-81
2023/10/23 10:46:23;;;;;;;2.25;0.50;;;12.40;99.90;;;;;;5018545;28;20189;-84
2023/10/23 10:48:50;;;;;;;0.40;0.25;;;12.40;99.90;;;;;;5031908;28;20320;-84
2023/10/23 10:51:27;;;;;;;1.52;0.60;;;12.60;99.90;;;;;;5010535;28;20210;-84
2023/10/23 10:54:00;;;;;;;0.50;0.30;;;12.40;99.90;;;;;;5021699;28;25758;-81
2023/10/23 10:56:26;;;;;;;0.40;0.28;;;12.20;99.90;;;;;;5018234;28;20299;-82
2023/10/23 10:58:52;;;;;;;1.00;0.55;;;11.90;99.90;;;;;;5017668;28;21117;-84
2023/10/23 11:01:22;;;;;;;0.40;0.20;;;11.80;99.90;;;;;;5019805;28;20210;-79
2023/10/23 11:03:47;;;;;;;2.08;1.27;;;11.80;99.90;;;;;;5027463;28;20181;-83
2023/10/23 11:06:13;;;;;;;0.40;0.40;;;11.70;99.90;;;;;;5025649;28;20201;-82
2023/10/23 11:08:40;;;;;;;0.40;0.30;;;11.60;99.90;;;;;;5028688;28;20275;-82
2023/10/23 11:11:06;;;;;;;0.50;0.38;;;11.60;99.90;;;;;;5024775;28;20217;-79
2023/10/23 11:13:32;;;;;;;0.50;0.40;;;11.70;99.90;;;;;;5037202;28;20750;-78
2023/10/23 11:15:58;;;;;;;0.88;0.88;;;11.90;99.90;;;;;;5021818;28;20440;-82
2023/10/23 11:18:25;;;;;;;0.40;0.20;;;12.20;99.90;;;;;;5038085;28;20320;-83
2023/10/23 11:20:55;;;;;;;0.95;0.90;;;12.30;99.90;;;;;;5026105;28;20209;-82
2023/10/23 11:23:22;;;;;;;0.50;0.30;;;12.40;99.90;;;;;;5030683;28;20228;-83
2023/10/23 11:25:49;;;;;;;0.55;0.50;;;12.40;99.90;;;;;;5010477;28;20284;-77
2023/10/23 11:28:17;;;;;;;0.40;0.20;;;12.40;99.90;;;;;;5029868;28;20190;-82
2023/10/23 11:30:53;;;;;;;1.10;1.10;;;12.50;99.90;;;;;;5033761;28;20260;-84
2023/10/23 11:33:19;;;;;;;1.27;0.83;;;12.60;99.90;;;;;;5015191;28;20872;-78
2023/10/23 11:35:45;;;;;;;0.70;0.57;;;;;;;;;;5029772;28;20452;-82
2023/10/23 11:38:15;;;;;;;1.43;0.60;;;12.70;99.90;;;;;;5020343;28;20460;-79
2023/10/23 11:40:42;;;;;;;0.40;0.30;;;12.80;99.90;;;;;;5037963;28;20491;-80
2023/10/23 11:43:13;;;;;;;0.55;0.50;;;12.80;99.90;;;;;;5026739;28;20518;-80
2023/10/23 11:45:44;;;;;;;0.50;0.40;;;12.90;99.90;;;;;;5019384;28;20192;-81
2023/10/23 11:48:14;;;;;;;0.50;0.40;;;13.10;99.90;;;;;;5016011;28;20510;-81
2023/10/23 11:50:43;;;;;;;0.40;0.30;;;13.20;99.90;;;;;;5030123;28;20474;-82
2023/10/23 11:53:09;;;;;;;0.60;0.57;;;13.30;99.90;;;;;;5017596;28;20869;-81
2023/10/23 11:55:37;;;;;;;4.90;0.87;;;13.70;99.90;;;;;;5027753;28;20515;-82
2023/10/23 11:58:05;;;;;;;0.40;0.30;;;14.00;99.90;;;;;;5033087;28;20564;-83
2023/10/23 12:00:35;;;;;;;2.30;2.00;;;14.30;99.90;;;;;;5018329;28;20550;-80
2023/10/23 12:03:00;;;;;;;1.07;0.60;;;16.70;99.90;;;;;;5013309;28;20661;-81
2023/10/23 12:05:26;;;;;;;0.40;0.30;;;14.10;99.90;;;;;;5025716;28;20459;-81
2023/10/23 12:07:56;;;;;;;0.93;0.90;;;14.20;99.90;;;;;;5033782;28;20196;-81
2023/10/23 12:10:26;;;;;;;0.40;0.30;;;14.30;99.90;;;;;;5044478;28;20194;-78
2023/10/23 12:12:52;;;;;;;0.60;0.43;;;14.40;99.90;;;;;;5029441;28;20849;-80
2023/10/23 12:15:18;;;;;;;2.20;1.83;;;14.50;99.90;;;;;;5039105;28;20559;-83
2023/10/23 12:17:44;;;;;;;0.40;0.30;;;;;;;;;;5026968;28;20468;-83
2023/10/23 12:20:11;;;;;;;0.40;0.30;;;14.00;99.90;;;;;;5040535;28;20523;-85
2023/10/23 12:22:43;;;;;;;0.40;0.30;;;13.80;99.90;;;;;;5023331;28;20440;-81
2023/10/23 12:25:10;;;;;;;0.40;0.30;;;13.60;99.90;;;;;;5026639;28;20542;-81
2023/10/23 12:27:36;;;;;;;0.40;0.30;;;;;;;;;;5036424;28;20656;-82
2023/10/23 12:30:04;;;;;;;0.40;0.30;;;13.70;99.90;;;;;;5030540;28;20456;-82
2023/10/23 12:32:30;;;;;;;0.40;0.30;;;13.70;99.90;;;;;;5019924;28;20481;-79
2023/10/23 12:34:59;;;;;;;0.90;0.40;;;13.60;99.90;;;;;;5022535;28;20440;-84
2023/10/23 12:37:32;;;;;;;0.40;0.20;;;13.60;99.90;;;;;;5036474;28;21818;-82
2023/10/23 12:40:00;;;;;;;0.87;0.87;;;13.70;99.90;;;;;;5041008;28;20471;-82
2023/10/23 12:42:27;;;;;;;0.77;0.77;;;13.70;99.90;;;;;;5008081;28;20457;-79
2023/10/23 12:44:54;;;;;;;1.50;1.40;;;14.10;99.90;;;;;;5019347;28;20961;-81
2023/10/23 12:47:20;;;;;;;0.40;0.20;;;14.10;99.90;;;;;;5038491;28;20453;-84
2023/10/23 12:49:46;;;;;;;0.40;0.30;;;14.10;99.90;;;;;;5019404;28;20576;-86
2023/10/23 12:52:12;;;;;;;0.60;0.60;;;13.80;99.90;;;;;;5025626;28;20567;-79
2023/10/23 12:54:38;;;;;;;0.60;0.40;;;;;;;;;;5026306;28;20189;-79
2023/10/23 12:57:04;;;;;;;0.50;0.40;;;13.90;99.90;;;;;;5038112;28;20480;-85